sensor_id;sensor_type;location;lat;lon;timestamp;pressure;altitude;pressure_sealevel;temperature
11321;BMP180;5715;48.234;14.320;2023-08-06T00:02:35;97665.00;;;23.80
11321;BMP180;5715;48.234;14.320;2023-08-06T00:05:22;97668.00;;;23.90
11321;BMP180;5715;48.234;14.320;2023-08-06T00:08:10;97667.00;;;24.10
11321;BMP180;5715;48.234;14.320;2023-08-06T00:10:58;97668.00;;;24.00
11321;BMP180;5715;48.234;14.320;2023-08-06T00:13:45;97667.00;;;24.00
11321;BMP180;5715;48.234;14.320;2023-08-06T00:16:33;97668.00;;;24.00
11321;BMP180;5715;48.234;14.320;2023-08-06T00:19:20;97662.00;;;24.10
11321;BMP180;5715;48.234;14.320;2023-08-06T00:22:08;97657.00;;;24.20
11321;BMP180;5715;48.234;14.320;2023-08-06T00:24:55;97657.00;;;24.20
11321;BMP180;5715;48.234;14.320;2023-08-06T00:27:44;97659.00;;;24.40
11321;BMP180;5715;48.234;14.320;2023-08-06T00:30:32;97657.00;;;24.50
11321;BMP180;5715;48.234;14.320;2023-08-06T00:33:21;97658.00;;;24.50
11321;BMP180;5715;48.234;14.320;2023-08-06T00:36:08;97655.00;;;24.60
11321;BMP180;5715;48.234;14.320;2023-08-06T00:38:56;97654.00;;;24.40
11321;BMP180;5715;48.234;14.320;2023-08-06T00:41:43;97647.00;;;24.30
11321;BMP180;5715;48.234;14.320;2023-08-06T00:44:31;97643.00;;;24.20
11321;BMP180;5715;48.234;14.320;2023-08-06T00:47:19;97643.00;;;24.50
11321;BMP180;5715;48.234;14.320;2023-08-06T00:50:08;97654.00;;;24.60
11321;BMP180;5715;48.234;14.320;2023-08-06T00:52:56;97637.00;;;24.50
11321;BMP180;5715;48.234;14.320;2023-08-06T00:55:45;97635.00;;;24.80
11321;BMP180;5715;48.234;14.320;2023-08-06T00:58:33;97625.00;;;24.70
11321;BMP180;5715;48.234;14.320;2023-08-06T01:01:22;97628.00;;;24.80
11321;BMP180;5715;48.234;14.320;2023-08-06T01:04:12;97618.00;;;24.70
11321;BMP180;5715;48.234;14.320;2023-08-06T01:07:33;97606.00;;;24.70
11321;BMP180;5715;48.234;14.320;2023-08-06T01:13:47;97605.00;;;24.70
11321;BMP180;5715;48.234;14.320;2023-08-06T01:16:38;97608.00;;;24.70
11321;BMP180;5715;48.234;14.320;2023-08-06T01:19:27;97610.00;;;24.80
11321;BMP180;5715;48.234;14.320;2023-08-06T01:22:15;97608.00;;;24.80
11321;BMP180;5715;48.234;14.320;2023-08-06T01:25:03;97608.00;;;24.90
11321;BMP180;5715;48.234;14.320;2023-08-06T01:27:56;97612.00;;;24.80
11321;BMP180;5715;48.234;14.320;2023-08-06T01:30:49;97608.00;;;24.80
11321;BMP180;5715;48.234;14.320;2023-08-06T01:33:43;97602.00;;;24.80
11321;BMP180;5715;48.234;14.320;2023-08-06T01:36:33;97600.00;;;24.80
11321;BMP180;5715;48.234;14.320;2023-08-06T01:39:21;97608.00;;;24.60
11321;BMP180;5715;48.234;14.320;2023-08-06T01:42:09;97608.00;;;24.70
11321;BMP180;5715;48.234;14.320;2023-08-06T01:44:56;97598.00;;;24.80
11321;BMP180;5715;48.234;14.320;2023-08-06T01:47:44;97602.00;;;24.70
11321;BMP180;5715;48.234;14.320;2023-08-06T01:50:31;97600.00;;;24.60
11321;BMP180;5715;48.234;14.320;2023-08-06T01:53:19;97603.00;;;24.80
11321;BMP180;5715;48.234;14.320;2023-08-06T01:56:06;97593.00;;;24.40
11321;BMP180;5715;48.234;14.320;2023-08-06T01:58:54;97593.00;;;24.50
11321;BMP180;5715;48.234;14.320;2023-08-06T02:01:42;97589.00;;;24.40
11321;BMP180;5715;48.234;14.320;2023-08-06T02:04:29;97587.00;;;24.10
11321;BMP180;5715;48.234;14.320;2023-08-06T02:07:17;97592.00;;;24.10
11321;BMP180;5715;48.234;14.320;2023-08-06T02:10:05;97592.00;;;24.00
11321;BMP180;5715;48.234;14.320;2023-08-06T02:12:53;97589.00;;;24.20
11321;BMP180;5715;48.234;14.320;2023-08-06T02:15:45;97584.00;;;24.10
11321;BMP180;5715;48.234;14.320;2023-08-06T02:18:35;97587.00;;;24.30
11321;BMP180;5715;48.234;14.320;2023-08-06T02:21:22;97584.00;;;24.20
11321;BMP180;5715;48.234;14.320;2023-08-06T02:24:10;97589.00;;;23.90
11321;BMP180;5715;48.234;14.320;2023-08-06T02:26:58;97580.00;;;23.90
11321;BMP180;5715;48.234;14.320;2023-08-06T02:29:45;97575.00;;;23.90
11321;BMP180;5715;48.234;14.320;2023-08-06T02:32:36;97575.00;;;24.10
11321;BMP180;5715;48.234;14.320;2023-08-06T02:35:23;97576.00;;;23.90
11321;BMP180;5715;48.234;14.320;2023-08-06T02:38:11;97573.00;;;23.50
11321;BMP180;5715;48.234;14.320;2023-08-06T02:41:02;97564.00;;;23.70
11321;BMP180;5715;48.234;14.320;2023-08-06T02:43:50;97565.00;;;23.70
11321;BMP180;5715;48.234;14.320;2023-08-06T02:46:37;97568.00;;;23.30
11321;BMP180;5715;48.234;14.320;2023-08-06T02:49:25;97568.00;;;23.60
11321;BMP180;5715;48.234;14.320;2023-08-06T02:52:13;97565.00;;;23.50
11321;BMP180;5715;48.234;14.320;2023-08-06T02:55:00;97564.00;;;23.60
11321;BMP180;5715;48.234;14.320;2023-08-06T02:57:48;97562.00;;;23.60
11321;BMP180;5715;48.234;14.320;2023-08-06T03:00:35;97558.00;;;23.30
11321;BMP180;5715;48.234;14.320;2023-08-06T03:03:23;97554.00;;;22.80
11321;BMP180;5715;48.234;14.320;2023-08-06T03:06:10;97562.00;;;22.70
11321;BMP180;5715;48.234;14.320;2023-08-06T03:08:58;97558.00;;;22.50
11321;BMP180;5715;48.234;14.320;2023-08-06T03:11:46;97553.00;;;22.80
11321;BMP180;5715;48.234;14.320;2023-08-06T03:14:33;97553.00;;;22.90
11321;BMP180;5715;48.234;14.320;2023-08-06T03:17:21;97560.00;;;22.50
11321;BMP180;5715;48.234;14.320;2023-08-06T03:20:08;97554.00;;;22.60
11321;BMP180;5715;48.234;14.320;2023-08-06T03:22:56;97560.00;;;22.80
11321;BMP180;5715;48.234;14.320;2023-08-06T03:25:44;97559.00;;;22.40
11321;BMP180;5715;48.234;14.320;2023-08-06T03:28:32;97560.00;;;22.70
11321;BMP180;5715;48.234;14.320;2023-08-06T03:31:19;97557.00;;;22.70
11321;BMP180;5715;48.234;14.320;2023-08-06T03:34:07;97560.00;;;22.70
11321;BMP180;5715;48.234;14.320;2023-08-06T03:36:54;97550.00;;;22.50
11321;BMP180;5715;48.234;14.320;2023-08-06T03:39:42;97546.00;;;22.50
11321;BMP180;5715;48.234;14.320;2023-08-06T03:42:29;97553.00;;;22.30
11321;BMP180;5715;48.234;14.320;2023-08-06T03:45:17;97548.00;;;22.30
11321;BMP180;5715;48.234;14.320;2023-08-06T03:48:05;97548.00;;;22.60
11321;BMP180;5715;48.234;14.320;2023-08-06T03:50:55;97547.00;;;22.90
11321;BMP180;5715;48.234;14.320;2023-08-06T03:53:44;97545.00;;;23.00
11321;BMP180;5715;48.234;14.320;2023-08-06T03:56:32;97542.00;;;23.00
11321;BMP180;5715;48.234;14.320;2023-08-06T03:59:22;97543.00;;;22.70
11321;BMP180;5715;48.234;14.320;2023-08-06T04:02:13;97536.00;;;22.70
11321;BMP180;5715;48.234;14.320;2023-08-06T04:05:01;97537.00;;;22.50
11321;BMP180;5715;48.234;14.320;2023-08-06T04:07:48;97548.00;;;22.60
11321;BMP180;5715;48.234;14.320;2023-08-06T04:10:36;97545.00;;;22.50
11321;BMP180;5715;48.234;14.320;2023-08-06T04:13:24;97550.00;;;22.80
11321;BMP180;5715;48.234;14.320;2023-08-06T04:16:11;97552.00;;;22.40
11321;BMP180;5715;48.234;14.320;2023-08-06T04:19:00;97550.00;;;22.40
11321;BMP180;5715;48.234;14.320;2023-08-06T04:21:48;97549.00;;;22.50
11321;BMP180;5715;48.234;14.320;2023-08-06T04:24:35;97548.00;;;22.40
11321;BMP180;5715;48.234;14.320;2023-08-06T04:27:23;97547.00;;;22.00
11321;BMP180;5715;48.234;14.320;2023-08-06T04:30:11;97549.00;;;21.90
11321;BMP180;5715;48.234;14.320;2023-08-06T04:32:59;97541.00;;;22.60
11321;BMP180;5715;48.234;14.320;2023-08-06T04:35:47;97543.00;;;22.50
11321;BMP180;5715;48.234;14.320;2023-08-06T04:38:35;97547.00;;;22.30
11321;BMP180;5715;48.234;14.320;2023-08-06T04:41:22;97545.00;;;22.00
11321;BMP180;5715;48.234;14.320;2023-08-06T04:44:10;97548.00;;;22.90
11321;BMP180;5715;48.234;14.320;2023-08-06T04:46:57;97553.00;;;22.70
11321;BMP180;5715;48.234;14.320;2023-08-06T04:49:45;97564.00;;;22.60
11321;BMP180;5715;48.234;14.320;2023-08-06T04:52:33;97558.00;;;22.50
11321;BMP180;5715;48.234;14.320;2023-08-06T04:55:20;97556.00;;;22.50
11321;BMP180;5715;48.234;14.320;2023-08-06T04:58:10;97554.00;;;22.80
11321;BMP180;5715;48.234;14.320;2023-08-06T05:00:58;97549.00;;;22.60
11321;BMP180;5715;48.234;14.320;2023-08-06T05:03:47;97562.00;;;22.50
11321;BMP180;5715;48.234;14.320;2023-08-06T05:06:34;97563.00;;;22.50
11321;BMP180;5715;48.234;14.320;2023-08-06T05:09:22;97565.00;;;22.30
11321;BMP180;5715;48.234;14.320;2023-08-06T05:12:09;97561.00;;;22.40
11321;BMP180;5715;48.234;14.320;2023-08-06T05:14:57;97567.00;;;22.10
11321;BMP180;5715;48.234;14.320;2023-08-06T05:17:45;97570.00;;;22.20
11321;BMP180;5715;48.234;14.320;2023-08-06T05:20:37;97567.00;;;22.60
11321;BMP180;5715;48.234;14.320;2023-08-06T05:23:25;97563.00;;;22.40
11321;BMP180;5715;48.234;14.320;2023-08-06T05:26:12;97562.00;;;22.40
11321;BMP180;5715;48.234;14.320;2023-08-06T05:29:02;97567.00;;;22.70
11321;BMP180;5715;48.234;14.320;2023-08-06T05:31:49;97568.00;;;22.10
11321;BMP180;5715;48.234;14.320;2023-08-06T05:34:37;97566.00;;;22.40
11321;BMP180;5715;48.234;14.320;2023-08-06T05:37:24;97571.00;;;22.70
11321;BMP180;5715;48.234;14.320;2023-08-06T05:40:12;97562.00;;;22.60
11321;BMP180;5715;48.234;14.320;2023-08-06T05:43:00;97568.00;;;22.20
11321;BMP180;5715;48.234;14.320;2023-08-06T05:45:49;97557.00;;;22.20
11321;BMP180;5715;48.234;14.320;2023-08-06T05:48:37;97557.00;;;22.30
11321;BMP180;5715;48.234;14.320;2023-08-06T05:51:26;97552.00;;;22.40
11321;BMP180;5715;48.234;14.320;2023-08-06T05:54:14;97556.00;;;22.70
11321;BMP180;5715;48.234;14.320;2023-08-06T05:57:02;97553.00;;;22.50
11321;BMP180;5715;48.234;14.320;2023-08-06T05:59:49;97554.00;;;22.70
11321;BMP180;5715;48.234;14.320;2023-08-06T06:02:37;97555.00;;;22.80
11321;BMP180;5715;48.234;14.320;2023-08-06T06:05:24;97559.00;;;22.80
11321;BMP180;5715;48.234;14.320;2023-08-06T06:08:12;97555.00;;;22.50
11321;BMP180;5715;48.234;14.320;2023-08-06T06:10:59;97554.00;;;22.50
11321;BMP180;5715;48.234;14.320;2023-08-06T06:13:50;97555.00;;;22.20
11321;BMP180;5715;48.234;14.320;2023-08-06T06:16:38;97561.00;;;22.40
11321;BMP180;5715;48.234;14.320;2023-08-06T06:19:26;97565.00;;;22.20
11321;BMP180;5715;48.234;14.320;2023-08-06T06:22:15;97560.00;;;22.30
11321;BMP180;5715;48.234;14.320;2023-08-06T06:25:03;97555.00;;;22.20
11321;BMP180;5715;48.234;14.320;2023-08-06T06:27:51;97566.00;;;22.30
11321;BMP180;5715;48.234;14.320;2023-08-06T06:30:38;97555.00;;;22.50
11321;BMP180;5715;48.234;14.320;2023-08-06T06:33:26;97565.00;;;22.60
11321;BMP180;5715;48.234;14.320;2023-08-06T06:36:13;97566.00;;;22.60
11321;BMP180;5715;48.234;14.320;2023-08-06T06:39:03;97548.00;;;22.40
11321;BMP180;5715;48.234;14.320;2023-08-06T06:41:51;97556.00;;;22.90
11321;BMP180;5715;48.234;14.320;2023-08-06T06:44:39;97545.00;;;22.70
11321;BMP180;5715;48.234;14.320;2023-08-06T06:47:26;97548.00;;;23.10
11321;BMP180;5715;48.234;14.320;2023-08-06T06:50:14;97547.00;;;23.50
11321;BMP180;5715;48.234;14.320;2023-08-06T06:53:02;97546.00;;;23.60
11321;BMP180;5715;48.234;14.320;2023-08-06T06:55:49;97560.00;;;23.30
11321;BMP180;5715;48.234;14.320;2023-08-06T06:58:37;97556.00;;;23.20
11321;BMP180;5715;48.234;14.320;2023-08-06T07:01:26;97562.00;;;23.00
11321;BMP180;5715;48.234;14.320;2023-08-06T07:04:14;97555.00;;;23.30
11321;BMP180;5715;48.234;14.320;2023-08-06T07:07:07;97551.00;;;23.70
11321;BMP180;5715;48.234;14.320;2023-08-06T07:09:55;97554.00;;;23.60
11321;BMP180;5715;48.234;14.320;2023-08-06T07:12:43;97561.00;;;23.60
11321;BMP180;5715;48.234;14.320;2023-08-06T07:15:30;97565.00;;;23.80
11321;BMP180;5715;48.234;14.320;2023-08-06T07:18:18;97570.00;;;23.80
11321;BMP180;5715;48.234;14.320;2023-08-06T07:21:05;97568.00;;;23.80
11321;BMP180;5715;48.234;14.320;2023-08-06T07:23:53;97572.00;;;23.70
11321;BMP180;5715;48.234;14.320;2023-08-06T07:26:42;97579.00;;;23.80
11321;BMP180;5715;48.234;14.320;2023-08-06T07:29:29;97573.00;;;23.80
11321;BMP180;5715;48.234;14.320;2023-08-06T07:32:17;97563.00;;;23.50
11321;BMP180;5715;48.234;14.320;2023-08-06T07:35:05;97571.00;;;23.80
11321;BMP180;5715;48.234;14.320;2023-08-06T07:37:54;97573.00;;;22.80
11321;BMP180;5715;48.234;14.320;2023-08-06T07:40:45;97567.00;;;23.40
11321;BMP180;5715;48.234;14.320;2023-08-06T07:43:33;97564.00;;;23.20
11321;BMP180;5715;48.234;14.320;2023-08-06T07:46:20;97566.00;;;23.50
11321;BMP180;5715;48.234;14.320;2023-08-06T07:49:09;97562.00;;;23.70
11321;BMP180;5715;48.234;14.320;2023-08-06T07:51:58;97561.00;;;23.70
11321;BMP180;5715;48.234;14.320;2023-08-06T07:54:46;97561.00;;;23.60
11321;BMP180;5715;48.234;14.320;2023-08-06T07:57:33;97556.00;;;22.70
11321;BMP180;5715;48.234;14.320;2023-08-06T08:00:21;97559.00;;;23.10
11321;BMP180;5715;48.234;14.320;2023-08-06T08:03:09;97571.00;;;23.40
11321;BMP180;5715;48.234;14.320;2023-08-06T08:05:57;97574.00;;;23.40
11321;BMP180;5715;48.234;14.320;2023-08-06T08:08:47;97573.00;;;22.90
11321;BMP180;5715;48.234;14.320;2023-08-06T08:11:35;97566.00;;;22.80
11321;BMP180;5715;48.234;14.320;2023-08-06T08:14:23;97565.00;;;22.80
11321;BMP180;5715;48.234;14.320;2023-08-06T08:17:11;97566.00;;;22.60
11321;BMP180;5715;48.234;14.320;2023-08-06T08:19:59;97567.00;;;23.10
11321;BMP180;5715;48.234;14.320;2023-08-06T08:22:47;97558.00;;;23.10
11321;BMP180;5715;48.234;14.320;2023-08-06T08:25:34;97559.00;;;22.90
11321;BMP180;5715;48.234;14.320;2023-08-06T08:28:22;97553.00;;;23.00
11321;BMP180;5715;48.234;14.320;2023-08-06T08:31:11;97561.00;;;23.10
11321;BMP180;5715;48.234;14.320;2023-08-06T08:33:59;97552.00;;;22.90
11321;BMP180;5715;48.234;14.320;2023-08-06T08:36:48;97547.00;;;23.20
11321;BMP180;5715;48.234;14.320;2023-08-06T08:39:37;97549.00;;;23.50
11321;BMP180;5715;48.234;14.320;2023-08-06T08:42:25;97543.00;;;23.30
11321;BMP180;5715;48.234;14.320;2023-08-06T08:45:14;97550.00;;;22.60
11321;BMP180;5715;48.234;14.320;2023-08-06T08:48:02;97539.00;;;22.90
11321;BMP180;5715;48.234;14.320;2023-08-06T08:50:51;97537.00;;;23.00
11321;BMP180;5715;48.234;14.320;2023-08-06T08:53:39;97538.00;;;23.70
11321;BMP180;5715;48.234;14.320;2023-08-06T08:56:26;97537.00;;;23.30
11321;BMP180;5715;48.234;14.320;2023-08-06T08:59:14;97533.00;;;23.60
11321;BMP180;5715;48.234;14.320;2023-08-06T09:02:02;97533.00;;;23.90
11321;BMP180;5715;48.234;14.320;2023-08-06T09:04:52;97519.00;;;23.40
11321;BMP180;5715;48.234;14.320;2023-08-06T09:07:48;97524.00;;;23.60
11321;BMP180;5715;48.234;14.320;2023-08-06T09:10:36;97522.00;;;23.50
11321;BMP180;5715;48.234;14.320;2023-08-06T09:13:26;97521.00;;;23.70
11321;BMP180;5715;48.234;14.320;2023-08-06T09:16:13;97518.00;;;24.10
11321;BMP180;5715;48.234;14.320;2023-08-06T09:19:11;97515.00;;;23.90
11321;BMP180;5715;48.234;14.320;2023-08-06T09:22:06;97520.00;;;24.30
11321;BMP180;5715;48.234;14.320;2023-08-06T09:24:58;97510.00;;;25.00
11321;BMP180;5715;48.234;14.320;2023-08-06T09:27:47;97512.00;;;24.90
11321;BMP180;5715;48.234;14.320;2023-08-06T09:30:36;97512.00;;;25.40
11321;BMP180;5715;48.234;14.320;2023-08-06T09:33:24;97509.00;;;25.30
11321;BMP180;5715;48.234;14.320;2023-08-06T09:36:14;97505.00;;;25.00
11321;BMP180;5715;48.234;14.320;2023-08-06T09:39:16;97503.00;;;25.20
11321;BMP180;5715;48.234;14.320;2023-08-06T09:42:04;97509.00;;;25.10
11321;BMP180;5715;48.234;14.320;2023-08-06T09:44:53;97496.00;;;25.60
11321;BMP180;5715;48.234;14.320;2023-08-06T09:47:45;97493.00;;;25.90
11321;BMP180;5715;48.234;14.320;2023-08-06T09:50:36;97491.00;;;26.20
11321;BMP180;5715;48.234;14.320;2023-08-06T09:53:24;97489.00;;;25.40
11321;BMP180;5715;48.234;14.320;2023-08-06T09:56:13;97488.00;;;25.90
11321;BMP180;5715;48.234;14.320;2023-08-06T09:59:04;97487.00;;;26.10
11321;BMP180;5715;48.234;14.320;2023-08-06T10:01:54;97484.00;;;25.90
11321;BMP180;5715;48.234;14.320;2023-08-06T10:04:45;97477.00;;;25.40
11321;BMP180;5715;48.234;14.320;2023-08-06T10:07:44;97483.00;;;25.60
11321;BMP180;5715;48.234;14.320;2023-08-06T10:10:33;97478.00;;;25.40
11321;BMP180;5715;48.234;14.320;2023-08-06T10:13:23;97480.00;;;26.40
11321;BMP180;5715;48.234;14.320;2023-08-06T10:16:12;97472.00;;;26.40
11321;BMP180;5715;48.234;14.320;2023-08-06T10:19:01;97477.00;;;26.20
11321;BMP180;5715;48.234;14.320;2023-08-06T10:22:11;97479.00;;;27.10
11321;BMP180;5715;48.234;14.320;2023-08-06T10:25:01;97495.00;;;27.00
11321;BMP180;5715;48.234;14.320;2023-08-06T10:30:47;97483.00;;;27.30
11321;BMP180;5715;48.234;14.320;2023-08-06T10:33:46;97481.00;;;27.20
11321;BMP180;5715;48.234;14.320;2023-08-06T10:36:34;97466.00;;;27.30
11321;BMP180;5715;48.234;14.320;2023-08-06T10:39:22;97472.00;;;27.10
11321;BMP180;5715;48.234;14.320;2023-08-06T10:42:36;97461.00;;;26.00
11321;BMP180;5715;48.234;14.320;2023-08-06T10:45:24;97458.00;;;26.50
11321;BMP180;5715;48.234;14.320;2023-08-06T10:48:35;97465.00;;;26.80
11321;BMP180;5715;48.234;14.320;2023-08-06T10:51:26;97469.00;;;27.20
11321;BMP180;5715;48.234;14.320;2023-08-06T10:54:15;97461.00;;;26.90
11321;BMP180;5715;48.234;14.320;2023-08-06T10:57:09;97468.00;;;27.20
11321;BMP180;5715;48.234;14.320;2023-08-06T10:59:57;97477.00;;;26.70
11321;BMP180;5715;48.234;14.320;2023-08-06T11:03:03;97473.00;;;25.60
11321;BMP180;5715;48.234;14.320;2023-08-06T11:05:51;97458.00;;;25.70
11321;BMP180;5715;48.234;14.320;2023-08-06T11:08:49;97457.00;;;26.00
11321;BMP180;5715;48.234;14.320;2023-08-06T11:11:37;97451.00;;;26.70
11321;BMP180;5715;48.234;14.320;2023-08-06T11:14:27;97455.00;;;27.10
11321;BMP180;5715;48.234;14.320;2023-08-06T11:17:15;97446.00;;;27.40
11321;BMP180;5715;48.234;14.320;2023-08-06T11:20:04;97448.00;;;28.00
11321;BMP180;5715;48.234;14.320;2023-08-06T11:22:52;97439.00;;;28.00
11321;BMP180;5715;48.234;14.320;2023-08-06T11:25:46;97427.00;;;27.80
11321;BMP180;5715;48.234;14.320;2023-08-06T11:28:34;97431.00;;;28.00
11321;BMP180;5715;48.234;14.320;2023-08-06T11:31:23;97432.00;;;28.70
11321;BMP180;5715;48.234;14.320;2023-08-06T11:34:11;97445.00;;;28.80
11321;BMP180;5715;48.234;14.320;2023-08-06T11:36:59;97437.00;;;29.10
11321;BMP180;5715;48.234;14.320;2023-08-06T11:39:47;97439.00;;;28.40
11321;BMP180;5715;48.234;14.320;2023-08-06T11:42:38;97440.00;;;27.90
11321;BMP180;5715;48.234;14.320;2023-08-06T11:45:26;97437.00;;;27.80
11321;BMP180;5715;48.234;14.320;2023-08-06T11:48:13;97437.00;;;27.30
11321;BMP180;5715;48.234;14.320;2023-08-06T11:51:01;97427.00;;;27.60
11321;BMP180;5715;48.234;14.320;2023-08-06T11:53:58;97436.00;;;27.30
11321;BMP180;5715;48.234;14.320;2023-08-06T11:56:46;97437.00;;;27.10
11321;BMP180;5715;48.234;14.320;2023-08-06T11:59:34;97438.00;;;28.10
11321;BMP180;5715;48.234;14.320;2023-08-06T12:02:21;97436.00;;;27.30
11321;BMP180;5715;48.234;14.320;2023-08-06T12:05:29;97453.00;;;27.20
11321;BMP180;5715;48.234;14.320;2023-08-06T12:08:17;97461.00;;;27.00
11321;BMP180;5715;48.234;14.320;2023-08-06T12:11:05;97452.00;;;26.70
11321;BMP180;5715;48.234;14.320;2023-08-06T12:13:54;97461.00;;;26.60
11321;BMP180;5715;48.234;14.320;2023-08-06T12:16:44;97458.00;;;26.90
11321;BMP180;5715;48.234;14.320;2023-08-06T12:19:31;97457.00;;;26.90
11321;BMP180;5715;48.234;14.320;2023-08-06T12:22:19;97455.00;;;27.50
11321;BMP180;5715;48.234;14.320;2023-08-06T12:25:14;97457.00;;;27.70
11321;BMP180;5715;48.234;14.320;2023-08-06T12:28:02;97463.00;;;27.20
11321;BMP180;5715;48.234;14.320;2023-08-06T12:30:49;97480.00;;;26.60
11321;BMP180;5715;48.234;14.320;2023-08-06T12:33:38;97512.00;;;26.00
11321;BMP180;5715;48.234;14.320;2023-08-06T12:36:25;97547.00;;;25.70
11321;BMP180;5715;48.234;14.320;2023-08-06T12:39:13;97564.00;;;24.90
11321;BMP180;5715;48.234;14.320;2023-08-06T12:42:05;97546.00;;;24.80
11321;BMP180;5715;48.234;14.320;2023-08-06T12:44:56;97552.00;;;24.60
11321;BMP180;5715;48.234;14.320;2023-08-06T12:47:44;97547.00;;;23.90
11321;BMP180;5715;48.234;14.320;2023-08-06T12:50:32;97531.00;;;24.00
11321;BMP180;5715;48.234;14.320;2023-08-06T12:53:20;97533.00;;;23.80
11321;BMP180;5715;48.234;14.320;2023-08-06T12:56:09;97549.00;;;23.70
11321;BMP180;5715;48.234;14.320;2023-08-06T12:58:57;97581.00;;;23.40
11321;BMP180;5715;48.234;14.320;2023-08-06T13:01:45;97564.00;;;23.40
11321;BMP180;5715;48.234;14.320;2023-08-06T13:04:32;97582.00;;;23.30
11321;BMP180;5715;48.234;14.320;2023-08-06T13:07:21;97575.00;;;23.00
11321;BMP180;5715;48.234;14.320;2023-08-06T13:10:09;97571.00;;;22.60
11321;BMP180;5715;48.234;14.320;2023-08-06T13:12:57;97567.00;;;23.10
11321;BMP180;5715;48.234;14.320;2023-08-06T13:15:44;97561.00;;;22.80
11321;BMP180;5715;48.234;14.320;2023-08-06T13:18:32;97559.00;;;23.40
11321;BMP180;5715;48.234;14.320;2023-08-06T13:21:20;97566.00;;;23.60
11321;BMP180;5715;48.234;14.320;2023-08-06T13:24:08;97570.00;;;23.90
11321;BMP180;5715;48.234;14.320;2023-08-06T13:26:56;97571.00;;;23.80
11321;BMP180;5715;48.234;14.320;2023-08-06T13:29:44;97567.00;;;24.40
11321;BMP180;5715;48.234;14.320;2023-08-06T13:32:31;97563.00;;;24.40
11321;BMP180;5715;48.234;14.320;2023-08-06T13:35:20;97564.00;;;24.50
11321;BMP180;5715;48.234;14.320;2023-08-06T13:38:07;97562.00;;;24.90
11321;BMP180;5715;48.234;14.320;2023-08-06T13:40:55;97568.00;;;25.10
11321;BMP180;5715;48.234;14.320;2023-08-06T13:43:43;97563.00;;;25.10
11321;BMP180;5715;48.234;14.320;2023-08-06T13:46:31;97545.00;;;25.00
11321;BMP180;5715;48.234;14.320;2023-08-06T13:49:19;97553.00;;;25.70
11321;BMP180;5715;48.234;14.320;2023-08-06T13:52:06;97562.00;;;24.60
11321;BMP180;5715;48.234;14.320;2023-08-06T13:55:08;97554.00;;;24.60
11321;BMP180;5715;48.234;14.320;2023-08-06T13:57:56;97569.00;;;24.80
11321;BMP180;5715;48.234;14.320;2023-08-06T14:00:44;97566.00;;;24.60
11321;BMP180;5715;48.234;14.320;2023-08-06T14:03:31;97574.00;;;25.00
11321;BMP180;5715;48.234;14.320;2023-08-06T14:06:19;97581.00;;;24.20
11321;BMP180;5715;48.234;14.320;2023-08-06T14:09:07;97579.00;;;24.10
11321;BMP180;5715;48.234;14.320;2023-08-06T14:11:55;97585.00;;;24.00
11321;BMP180;5715;48.234;14.320;2023-08-06T14:14:43;97591.00;;;24.00
11321;BMP180;5715;48.234;14.320;2023-08-06T14:17:30;97599.00;;;24.50
11321;BMP180;5715;48.234;14.320;2023-08-06T14:20:18;97599.00;;;24.10
11321;BMP180;5715;48.234;14.320;2023-08-06T14:23:06;97600.00;;;24.30
11321;BMP180;5715;48.234;14.320;2023-08-06T14:25:53;97596.00;;;24.30
11321;BMP180;5715;48.234;14.320;2023-08-06T14:28:41;97601.00;;;24.70
11321;BMP180;5715;48.234;14.320;2023-08-06T14:31:29;97606.00;;;24.50
11321;BMP180;5715;48.234;14.320;2023-08-06T14:34:17;97606.00;;;24.50
11321;BMP180;5715;48.234;14.320;2023-08-06T14:37:04;97613.00;;;24.40
11321;BMP180;5715;48.234;14.320;2023-08-06T14:39:52;97617.00;;;23.70
11321;BMP180;5715;48.234;14.320;2023-08-06T14:42:39;97631.00;;;23.80
11321;BMP180;5715;48.234;14.320;2023-08-06T14:45:27;97632.00;;;23.80
11321;BMP180;5715;48.234;14.320;2023-08-06T14:48:15;97627.00;;;24.30
11321;BMP180;5715;48.234;14.320;2023-08-06T14:51:02;97629.00;;;24.50
11321;BMP180;5715;48.234;14.320;2023-08-06T14:53:50;97630.00;;;24.80
11321;BMP180;5715;48.234;14.320;2023-08-06T14:56:37;97624.00;;;25.50
11321;BMP180;5715;48.234;14.320;2023-08-06T14:59:25;97622.00;;;25.80
11321;BMP180;5715;48.234;14.320;2023-08-06T15:02:13;97619.00;;;26.00
11321;BMP180;5715;48.234;14.320;2023-08-06T15:05:00;97620.00;;;25.70
11321;BMP180;5715;48.234;14.320;2023-08-06T15:07:48;97634.00;;;26.70
11321;BMP180;5715;48.234;14.320;2023-08-06T15:10:36;97623.00;;;26.60
11321;BMP180;5715;48.234;14.320;2023-08-06T15:13:23;97623.00;;;26.90
11321;BMP180;5715;48.234;14.320;2023-08-06T15:16:11;97623.00;;;26.50
11321;BMP180;5715;48.234;14.320;2023-08-06T15:18:58;97623.00;;;26.60
11321;BMP180;5715;48.234;14.320;2023-08-06T15:21:46;97629.00;;;26.20
11321;BMP180;5715;48.234;14.320;2023-08-06T15:24:34;97619.00;;;26.50
11321;BMP180;5715;48.234;14.320;2023-08-06T15:27:23;97626.00;;;26.30
11321;BMP180;5715;48.234;14.320;2023-08-06T15:30:11;97622.00;;;25.60
11321;BMP180;5715;48.234;14.320;2023-08-06T15:32:59;97637.00;;;25.80
11321;BMP180;5715;48.234;14.320;2023-08-06T15:35:48;97653.00;;;25.10
11321;BMP180;5715;48.234;14.320;2023-08-06T15:38:35;97651.00;;;24.70
11321;BMP180;5715;48.234;14.320;2023-08-06T15:41:23;97658.00;;;24.90
11321;BMP180;5715;48.234;14.320;2023-08-06T15:44:11;97666.00;;;24.40
11321;BMP180;5715;48.234;14.320;2023-08-06T15:46:58;97670.00;;;24.60
11321;BMP180;5715;48.234;14.320;2023-08-06T15:49:45;97663.00;;;24.40
11321;BMP180;5715;48.234;14.320;2023-08-06T15:52:33;97662.00;;;24.70
11321;BMP180;5715;48.234;14.320;2023-08-06T15:55:21;97661.00;;;24.70
11321;BMP180;5715;48.234;14.320;2023-08-06T15:58:09;97671.00;;;24.40
11321;BMP180;5715;48.234;14.320;2023-08-06T16:00:56;97662.00;;;24.70
11321;BMP180;5715;48.234;14.320;2023-08-06T16:03:44;97649.00;;;24.70
11321;BMP180;5715;48.234;14.320;2023-08-06T16:06:32;97668.00;;;24.70
11321;BMP180;5715;48.234;14.320;2023-08-06T16:09:20;97666.00;;;25.10
11321;BMP180;5715;48.234;14.320;2023-08-06T16:12:11;97659.00;;;25.10
11321;BMP180;5715;48.234;14.320;2023-08-06T16:14:58;97670.00;;;25.10
11321;BMP180;5715;48.234;14.320;2023-08-06T16:17:47;97665.00;;;24.80
11321;BMP180;5715;48.234;14.320;2023-08-06T16:20:34;97678.00;;;25.50